sensor_id;sensor_type;location;lat;lon;timestamp;pressure;altitude;pressure_sealevel;temperature;humidity
51958;BME280;41120;51.820;20.804;2022-09-09T00:05:01;60446.28;;;-144.99;100.00
51958;BME280;41120;51.820;20.804;2022-09-09T00:07:43;60446.28;;;-144.99;100.00
51958;BME280;41120;51.820;20.804;2022-09-09T00:13:19;60446.28;;;-144.99;100.00
51958;BME280;41120;51.820;20.804;2022-09-09T00:16:21;60446.28;;;-144.99;100.00
51958;BME280;41120;51.820;20.804;2022-09-09T00:22:20;60446.28;;;-144.99;100.00
51958;BME280;41120;51.820;20.804;2022-09-09T00:24:58;60446.28;;;-144.99;100.00
51958;BME280;41120;51.820;20.804;2022-09-09T00:30:44;60446.28;;;-144.99;100.00
51958;BME280;41120;51.820;20.804;2022-09-09T00:33:33;60446.28;;;-144.99;100.00
51958;BME280;41120;51.820;20.804;2022-09-09T00:36:12;60446.28;;;-144.99;100.00
51958;BME280;41120;51.820;20.804;2022-09-09T00:38:51;60446.28;;;-144.99;100.00
51958;BME280;41120;51.820;20.804;2022-09-09T00:44:53;60446.28;;;-144.99;100.00
51958;BME280;41120;51.820;20.804;2022-09-09T00:58:18;60446.28;;;-144.99;100.00
51958;BME280;41120;51.820;20.804;2022-09-09T01:01:24;60446.28;;;-144.99;100.00
51958;BME280;41120;51.820;20.804;2022-09-09T01:04:18;60446.28;;;-144.99;100.00
51958;BME280;41120;51.820;20.804;2022-09-09T01:06:52;60446.28;;;-144.99;100.00
51958;BME280;41120;51.820;20.804;2022-09-09T01:12:56;60446.28;;;-144.99;100.00
51958;BME280;41120;51.820;20.804;2022-09-09T01:15:32;60446.28;;;-144.99;100.00
51958;BME280;41120;51.820;20.804;2022-09-09T01:18:19;60446.28;;;-144.99;100.00
51958;BME280;41120;51.820;20.804;2022-09-09T01:29:39;60446.28;;;-144.99;100.00
51958;BME280;41120;51.820;20.804;2022-09-09T01:38:43;60446.28;;;-144.99;100.00
51958;BME280;41120;51.820;20.804;2022-09-09T01:41:21;60446.28;;;-144.99;100.00
51958;BME280;41120;51.820;20.804;2022-09-09T01:43:48;60446.28;;;-144.99;100.00
51958;BME280;41120;51.820;20.804;2022-09-09T01:46:19;60446.28;;;-144.99;100.00
51958;BME280;41120;51.820;20.804;2022-09-09T01:48:59;60446.28;;;-144.99;100.00
51958;BME280;41120;51.820;20.804;2022-09-09T01:51:28;60446.28;;;-144.99;100.00
51958;BME280;41120;51.820;20.804;2022-09-09T01:54:09;60446.28;;;-144.99;100.00
51958;BME280;41120;51.820;20.804;2022-09-09T02:02:30;60446.28;;;-144.99;100.00
51958;BME280;41120;51.820;20.804;2022-09-09T02:05:16;60446.28;;;-144.99;100.00
51958;BME280;41120;51.820;20.804;2022-09-09T02:07:48;60446.28;;;-144.99;100.00
51958;BME280;41120;51.820;20.804;2022-09-09T02:10:32;60446.28;;;-144.99;100.00
51958;BME280;41120;51.820;20.804;2022-09-09T02:13:19;60446.28;;;-144.99;100.00
51958;BME280;41120;51.820;20.804;2022-09-09T02:16:02;60446.28;;;-144.99;100.00
51958;BME280;41120;51.820;20.804;2022-09-09T02:21:47;60446.28;;;-144.99;100.00
51958;BME280;41120;51.820;20.804;2022-09-09T02:24:15;60446.28;;;-144.99;100.00
51958;BME280;41120;51.820;20.804;2022-09-09T02:26:58;60446.28;;;-144.99;100.00
51958;BME280;41120;51.820;20.804;2022-09-09T02:29:39;60446.28;;;-144.99;100.00
51958;BME280;41120;51.820;20.804;2022-09-09T02:32:22;60446.28;;;-144.99;100.00
51958;BME280;41120;51.820;20.804;2022-09-09T02:35:19;60446.28;;;-144.99;100.00
51958;BME280;41120;51.820;20.804;2022-09-09T02:37:53;60446.28;;;-144.99;100.00
51958;BME280;41120;51.820;20.804;2022-09-09T02:40:23;60446.28;;;-144.99;100.00
51958;BME280;41120;51.820;20.804;2022-09-09T02:42:50;60446.28;;;-144.99;nan
51958;BME280;41120;51.820;20.804;2022-09-09T02:45:56;149283.72;;;11.08;93.55
51958;BME280;41120;51.820;20.804;2022-09-09T02:52:02;76140.59;;;-144.99;100.00
51958;BME280;41120;51.820;20.804;2022-09-09T02:54:35;99276.25;;;-144.99;100.00
51958;BME280;41120;51.820;20.804;2022-09-09T02:57:17;99276.25;;;-144.99;100.00
51958;BME280;41120;51.820;20.804;2022-09-09T03:02:36;99276.25;;;-144.99;100.00
51958;BME280;41120;51.820;20.804;2022-09-09T03:05:03;99276.25;;;-144.99;100.00
51958;BME280;41120;51.820;20.804;2022-09-09T03:07:36;114234.16;;;-144.99;93.55
51958;BME280;41120;51.820;20.804;2022-09-09T03:10:07;99276.25;;;11.08;0.00
51958;BME280;41120;51.820;20.804;2022-09-09T03:12:36;99177.03;;;10.93;100.00
51958;BME280;41120;51.820;20.804;2022-09-09T03:15:04;99187.25;;;10.97;100.00
51958;BME280;41120;51.820;20.804;2022-09-09T03:17:38;99187.25;;;10.97;100.00
51958;BME280;41120;51.820;20.804;2022-09-09T03:20:12;99185.00;;;10.92;100.00
51958;BME280;41120;51.820;20.804;2022-09-09T03:22:44;99185.00;;;10.92;100.00
51958;BME280;41120;51.820;20.804;2022-09-09T03:25:15;76090.63;;;-144.99;100.00
51958;BME280;41120;51.820;20.804;2022-09-09T03:28:11;60446.28;;;-144.99;100.00
51958;BME280;41120;51.820;20.804;2022-09-09T03:30:51;60446.28;;;-144.99;100.00
51958;BME280;41120;51.820;20.804;2022-09-09T03:33:27;60446.28;;;-144.99;100.00
51958;BME280;41120;51.820;20.804;2022-09-09T03:36:15;76090.63;;;-144.99;0.00
51958;BME280;41120;51.820;20.804;2022-09-09T03:38:42;76090.63;;;-144.99;100.00
51958;BME280;41120;51.820;20.804;2022-09-09T03:41:26;99185.00;;;-144.99;100.00
51958;BME280;41120;51.820;20.804;2022-09-09T03:44:11;60446.28;;;-144.99;100.00
51958;BME280;41120;51.820;20.804;2022-09-09T03:46:43;76090.63;;;-144.99;100.00
51958;BME280;41120;51.820;20.804;2022-09-09T03:49:14;60446.28;;;-144.99;100.00
51958;BME280;41120;51.820;20.804;2022-09-09T03:51:42;99185.00;;;-144.99;0.00
51958;BME280;41120;51.820;20.804;2022-09-09T03:54:14;99185.00;;;10.92;100.00
51958;BME280;41120;51.820;20.804;2022-09-09T03:59:37;99185.00;;;-144.99;100.00
51958;BME280;41120;51.820;20.804;2022-09-09T04:02:04;99185.00;;;10.92;100.00
51958;BME280;41120;51.820;20.804;2022-09-09T04:04:39;99189.50;;;11.01;100.00
51958;BME280;41120;51.820;20.804;2022-09-09T04:07:24;60446.28;;;-144.99;100.00
51958;BME280;41120;51.820;20.804;2022-09-09T04:12:47;99189.50;;;-144.99;100.00
51958;BME280;41120;51.820;20.804;2022-09-09T04:15:15;99189.50;;;11.01;100.00
51958;BME280;41120;51.820;20.804;2022-09-09T04:17:43;99189.50;;;-144.99;100.00
51958;BME280;41120;51.820;20.804;2022-09-09T04:20:22;99190.84;;;10.96;100.00
51958;BME280;41120;51.820;20.804;2022-09-09T04:22:56;99190.84;;;10.96;100.00
51958;BME280;41120;51.820;20.804;2022-09-09T04:25:48;99187.78;;;10.90;100.00
51958;BME280;41120;51.820;20.804;2022-09-09T04:28:22;99198.25;;;10.90;100.00
51958;BME280;41120;51.820;20.804;2022-09-09T04:30:51;99201.31;;;10.96;100.00
51958;BME280;41120;51.820;20.804;2022-09-09T04:33:27;99206.28;;;10.99;100.00
51958;BME280;41120;51.820;20.804;2022-09-09T04:36:01;99206.28;;;10.99;100.00
51958;BME280;41120;51.820;20.804;2022-09-09T04:38:35;99198.69;;;10.96;100.00
51958;BME280;41120;51.820;20.804;2022-09-09T04:41:07;99198.69;;;10.96;100.00
51958;BME280;41120;51.820;20.804;2022-09-09T04:43:39;99206.28;;;10.99;100.00
51958;BME280;41120;51.820;20.804;2022-09-09T04:46:23;99204.03;;;10.94;100.00
51958;BME280;41120;51.820;20.804;2022-09-09T04:49:25;99218.69;;;10.97;100.00
51958;BME280;41120;51.820;20.804;2022-09-09T04:51:55;99210.09;;;10.95;100.00
51958;BME280;41120;51.820;20.804;2022-09-09T04:54:42;99213.81;;;10.92;100.00
51958;BME280;41120;51.820;20.804;2022-09-09T04:57:14;99215.94;;;10.98;100.00
51958;BME280;41120;51.820;20.804;2022-09-09T04:59:58;99221.19;;;10.98;100.00
51958;BME280;41120;51.820;20.804;2022-09-09T05:02:23;99219.84;;;11.04;100.00
51958;BME280;41120;51.820;20.804;2022-09-09T05:04:52;99216.88;;;10.97;100.00
51958;BME280;41120;51.820;20.804;2022-09-09T05:07:24;99222.81;;;10.99;100.00
51958;BME280;41120;51.820;20.804;2022-09-09T05:09:56;99221.03;;;11.00;100.00
51958;BME280;41120;51.820;20.804;2022-09-09T05:12:22;99224.38;;;11.02;100.00
51958;BME280;41120;51.820;20.804;2022-09-09T05:15:01;99225.34;;;11.01;100.00
51958;BME280;41120;51.820;20.804;2022-09-09T05:17:35;76110.63;;;-47.88;100.00
51958;BME280;41120;51.820;20.804;2022-09-09T05:20:31;99225.34;;;-144.99;0.00
51958;BME280;41120;51.820;20.804;2022-09-09T05:23:00;99223.41;;;11.03;100.00
51958;BME280;41120;51.820;20.804;2022-09-09T05:25:32;99232.81;;;11.05;100.00
51958;BME280;41120;51.820;20.804;2022-09-09T05:28:02;99228.66;;;11.24;100.00
51958;BME280;41120;51.820;20.804;2022-09-09T05:30:28;99218.97;;;11.14;100.00
51958;BME280;41120;51.820;20.804;2022-09-09T05:33:00;99222.31;;;11.26;100.00
51958;BME280;41120;51.820;20.804;2022-09-09T05:35:29;99220.63;;;11.37;100.00
51958;BME280;41120;51.820;20.804;2022-09-09T05:38:13;99218.84;;;11.37;100.00
51958;BME280;41120;51.820;20.804;2022-09-09T05:40:47;99226.81;;;11.56;100.00
51958;BME280;41120;51.820;20.804;2022-09-09T05:43:23;99215.31;;;11.27;100.00
51958;BME280;41120;51.820;20.804;2022-09-09T05:49:11;99230.25;;;11.36;100.00
51958;BME280;41120;51.820;20.804;2022-09-09T05:51:36;99233.13;;;11.54;100.00
51958;BME280;41120;51.820;20.804;2022-09-09T05:54:06;99221.41;;;11.58;100.00
51958;BME280;41120;51.820;20.804;2022-09-09T05:59:36;99228.88;;;11.84;100.00
51958;BME280;41120;51.820;20.804;2022-09-09T06:02:08;99238.66;;;11.82;100.00
51958;BME280;41120;51.820;20.804;2022-09-09T06:04:35;99240.25;;;11.94;100.00
51958;BME280;41120;51.820;20.804;2022-09-09T06:07:04;99244.09;;;11.90;100.00
51958;BME280;41120;51.820;20.804;2022-09-09T06:09:37;99247.09;;;11.85;100.00
51958;BME280;41120;51.820;20.804;2022-09-09T06:12:04;99244.41;;;11.96;100.00
51958;BME280;41120;51.820;20.804;2022-09-09T06:14:36;99251.03;;;11.91;100.00
51958;BME280;41120;51.820;20.804;2022-09-09T06:17:04;99239.03;;;11.98;100.00
51958;BME280;41120;51.820;20.804;2022-09-09T06:19:32;99242.34;;;11.90;100.00
51958;BME280;41120;51.820;20.804;2022-09-09T06:21:59;99247.50;;;11.81;100.00
51958;BME280;41120;51.820;20.804;2022-09-09T06:24:26;99241.50;;;11.99;100.00
51958;BME280;41120;51.820;20.804;2022-09-09T06:27:19;99249.97;;;12.03;100.00
51958;BME280;41120;51.820;20.804;2022-09-09T06:29:53;99263.22;;;12.02;100.00
51958;BME280;41120;51.820;20.804;2022-09-09T06:32:50;99245.50;;;11.94;100.00
51958;BME280;41120;51.820;20.804;2022-09-09T06:35:36;99258.91;;;11.91;100.00
51958;BME280;41120;51.820;20.804;2022-09-09T06:38:03;99256.97;;;11.93;100.00
51958;BME280;41120;51.820;20.804;2022-09-09T06:40:36;99259.09;;;12.09;100.00
51958;BME280;41120;51.820;20.804;2022-09-09T06:43:12;99274.16;;;12.16;100.00
51958;BME280;41120;51.820;20.804;2022-09-09T06:45:53;99277.09;;;12.23;100.00
51958;BME280;41120;51.820;20.804;2022-09-09T06:48:20;99267.97;;;12.17;100.00
51958;BME280;41120;51.820;20.804;2022-09-09T06:50:47;99271.56;;;12.16;100.00
51958;BME280;41120;51.820;20.804;2022-09-09T06:53:28;99263.47;;;12.29;100.00
51958;BME280;41120;51.820;20.804;2022-09-09T06:56:02;99262.09;;;12.35;100.00
51958;BME280;41120;51.820;20.804;2022-09-09T06:58:37;99273.09;;;12.69;100.00
51958;BME280;41120;51.820;20.804;2022-09-09T07:01:18;99283.47;;;12.71;100.00
51958;BME280;41120;51.820;20.804;2022-09-09T07:03:51;99270.75;;;12.76;100.00
51958;BME280;41120;51.820;20.804;2022-09-09T07:06:24;99287.63;;;12.73;100.00
51958;BME280;41120;51.820;20.804;2022-09-09T07:08:52;99293.00;;;12.72;100.00
51958;BME280;41120;51.820;20.804;2022-09-09T07:11:41;99289.97;;;12.76;100.00
51958;BME280;41120;51.820;20.804;2022-09-09T07:14:18;99299.41;;;13.08;100.00
51958;BME280;41120;51.820;20.804;2022-09-09T07:16:55;99299.28;;;13.10;100.00
51958;BME280;41120;51.820;20.804;2022-09-09T07:19:22;99309.94;;;13.18;100.00
51958;BME280;41120;51.820;20.804;2022-09-09T07:21:49;99314.91;;;13.21;100.00
51958;BME280;41120;51.820;20.804;2022-09-09T07:24:17;99315.06;;;13.10;100.00
51958;BME280;41120;51.820;20.804;2022-09-09T07:26:43;99316.41;;;13.14;100.00
51958;BME280;41120;51.820;20.804;2022-09-09T07:29:24;99324.31;;;13.14;100.00
51958;BME280;41120;51.820;20.804;2022-09-09T07:31:52;99325.13;;;13.04;100.00
51958;BME280;41120;51.820;20.804;2022-09-09T07:34:37;99320.56;;;13.26;100.00
51958;BME280;41120;51.820;20.804;2022-09-09T07:37:06;99319.66;;;13.27;100.00
51958;BME280;41120;51.820;20.804;2022-09-09T07:42:55;99308.81;;;13.20;100.00
51958;BME280;41120;51.820;20.804;2022-09-09T07:45:22;99324.50;;;13.41;100.00
51958;BME280;41120;51.820;20.804;2022-09-09T07:47:56;99320.75;;;13.54;100.00
51958;BME280;41120;51.820;20.804;2022-09-09T07:50:25;99322.09;;;13.58;100.00
51958;BME280;41120;51.820;20.804;2022-09-09T07:52:52;99317.00;;;13.56;100.00
51958;BME280;41120;51.820;20.804;2022-09-09T07:55:22;99325.13;;;13.73;100.00
51958;BME280;41120;51.820;20.804;2022-09-09T07:57:55;99327.91;;;13.81;100.00
51958;BME280;41120;51.820;20.804;2022-09-09T08:00:22;99314.06;;;13.79;100.00
51958;BME280;41120;51.820;20.804;2022-09-09T08:02:49;99337.00;;;13.96;100.00
51958;BME280;41120;51.820;20.804;2022-09-09T08:05:22;99320.72;;;13.83;100.00
51958;BME280;41120;51.820;20.804;2022-09-09T08:07:52;99331.59;;;13.98;100.00
51958;BME280;41120;51.820;20.804;2022-09-09T08:10:51;99332.63;;;14.24;100.00
51958;BME280;41120;51.820;20.804;2022-09-09T08:13:31;99331.34;;;14.28;100.00
51958;BME280;41120;51.820;20.804;2022-09-09T08:16:35;99337.31;;;14.30;100.00
51958;BME280;41120;51.820;20.804;2022-09-09T08:19:06;99321.03;;;14.45;100.00
51958;BME280;41120;51.820;20.804;2022-09-09T08:24:49;99335.97;;;14.64;100.00
51958;BME280;41120;51.820;20.804;2022-09-09T08:27:24;99337.31;;;14.68;100.00
51958;BME280;41120;51.820;20.804;2022-09-09T08:30:15;99346.06;;;14.68;100.00
51958;BME280;41120;51.820;20.804;2022-09-09T08:32:54;99348.34;;;14.53;100.00
51958;BME280;41120;51.820;20.804;2022-09-09T08:35:38;99343.75;;;14.46;100.00
51958;BME280;41120;51.820;20.804;2022-09-09T08:38:13;99348.63;;;14.41;100.00
51958;BME280;41120;51.820;20.804;2022-09-09T08:40:45;99358.44;;;14.58;100.00
51958;BME280;41120;51.820;20.804;2022-09-09T08:43:18;99351.91;;;14.52;100.00
51958;BME280;41120;51.820;20.804;2022-09-09T08:57:55;99366.53;;;14.74;100.00
51958;BME280;41120;51.820;20.804;2022-09-09T09:00:34;99357.28;;;14.70;100.00
51958;BME280;41120;51.820;20.804;2022-09-09T09:03:30;99351.91;;;14.62;100.00
51958;BME280;41120;51.820;20.804;2022-09-09T09:11:40;99362.41;;;14.72;100.00
51958;BME280;41120;51.820;20.804;2022-09-09T09:19:51;99351.31;;;14.96;100.00
51958;BME280;41120;51.820;20.804;2022-09-09T09:22:54;99366.94;;;15.25;100.00
51958;BME280;41120;51.820;20.804;2022-09-09T09:25:38;99366.56;;;15.20;100.00
51958;BME280;41120;51.820;20.804;2022-09-09T09:28:23;99362.41;;;15.17;100.00
51958;BME280;41120;51.820;20.804;2022-09-09T09:33:54;99352.75;;;15.26;100.00
51958;BME280;41120;51.820;20.804;2022-09-09T09:36:40;99359.03;;;15.25;100.00
51958;BME280;41120;51.820;20.804;2022-09-09T09:39:26;99366.47;;;15.30;100.00
51958;BME280;41120;51.820;20.804;2022-09-09T09:42:17;99365.19;;;15.16;100.00
51958;BME280;41120;51.820;20.804;2022-09-09T09:45:31;99356.81;;;15.03;100.00
51958;BME280;41120;51.820;20.804;2022-09-09T09:48:09;99376.09;;;15.03;100.00
51958;BME280;41120;51.820;20.804;2022-09-09T09:50:35;99373.66;;;14.92;100.00
51958;BME280;41120;51.820;20.804;2022-09-09T09:53:33;99368.69;;;14.89;100.00
51958;BME280;41120;51.820;20.804;2022-09-09T09:56:05;99384.59;;;14.97;100.00
51958;BME280;41120;51.820;20.804;2022-09-09T09:58:55;99387.91;;;14.99;100.00
51958;BME280;41120;51.820;20.804;2022-09-09T10:01:29;99384.59;;;14.97;100.00
51958;BME280;41120;51.820;20.804;2022-09-09T10:04:01;99384.06;;;14.93;100.00
51958;BME280;41120;51.820;20.804;2022-09-09T10:06:34;99388.47;;;15.03;100.00
51958;BME280;41120;51.820;20.804;2022-09-09T10:09:17;99399.28;;;14.99;100.00
51958;BME280;41120;51.820;20.804;2022-09-09T10:11:52;99403.53;;;15.10;100.00
51958;BME280;41120;51.820;20.804;2022-09-09T10:14:30;99405.56;;;15.16;100.00
51958;BME280;41120;51.820;20.804;2022-09-09T10:19:37;99408.81;;;15.28;100.00
51958;BME280;41120;51.820;20.804;2022-09-09T10:22:31;99418.78;;;15.34;100.00
51958;BME280;41120;51.820;20.804;2022-09-09T10:33:30;99425.63;;;15.73;100.00
51958;BME280;41120;51.820;20.804;2022-09-09T10:36:23;99431.03;;;15.89;100.00
51958;BME280;41120;51.820;20.804;2022-09-09T10:42:02;99417.50;;;15.38;100.00
51958;BME280;41120;51.820;20.804;2022-09-09T10:50:02;99419.91;;;15.68;100.00
51958;BME280;41120;51.820;20.804;2022-09-09T10:55:41;99424.31;;;15.77;100.00
51958;BME280;41120;51.820;20.804;2022-09-09T10:58:39;99427.41;;;15.72;100.00
51958;BME280;41120;51.820;20.804;2022-09-09T11:07:59;99426.28;;;15.75;100.00
51958;BME280;41120;51.820;20.804;2022-09-09T11:16:29;99436.13;;;16.09;100.00
51958;BME280;41120;51.820;20.804;2022-09-09T11:28:28;99445.22;;;15.88;100.00
51958;BME280;41120;51.820;20.804;2022-09-09T11:31:16;99455.47;;;15.91;100.00
51958;BME280;41120;51.820;20.804;2022-09-09T11:34:18;99447.06;;;16.14;100.00
51958;BME280;41120;51.820;20.804;2022-09-09T11:37:01;99456.94;;;16.30;100.00
51958;BME280;41120;51.820;20.804;2022-09-09T11:46:11;99460.75;;;16.61;100.00
51958;BME280;41120;51.820;20.804;2022-09-09T11:49:05;99459.50;;;16.47;100.00
51958;BME280;41120;51.820;20.804;2022-09-09T11:51:43;99448.22;;;16.37;100.00
51958;BME280;41120;51.820;20.804;2022-09-09T11:54:31;99458.91;;;16.54;100.00
51958;BME280;41120;51.820;20.804;2022-09-09T11:57:32;99459.00;;;16.44;100.00
51958;BME280;41120;51.820;20.804;2022-09-09T12:00:44;99457.75;;;16.30;100.00
51958;BME280;41120;51.820;20.804;2022-09-09T12:03:48;99457.53;;;16.23;100.00
51958;BME280;41120;51.820;20.804;2022-09-09T12:06:29;99457.50;;;15.97;100.00
51958;BME280;41120;51.820;20.804;2022-09-09T12:12:04;99447.41;;;15.75;100.00
51958;BME280;41120;51.820;20.804;2022-09-09T12:18:16;99457.44;;;16.07;100.00
51958;BME280;41120;51.820;20.804;2022-09-09T12:27:21;99452.72;;;16.19;100.00
51958;BME280;41120;51.820;20.804;2022-09-09T12:33:11;99458.69;;;16.47;100.00
51958;BME280;41120;51.820;20.804;2022-09-09T12:35:45;99454.84;;;16.15;100.00
51958;BME280;41120;51.820;20.804;2022-09-09T12:38:48;99459.97;;;16.43;100.00
51958;BME280;41120;51.820;20.804;2022-09-09T12:41:27;99454.56;;;16.44;100.00
51958;BME280;41120;51.820;20.804;2022-09-09T12:44:10;99446.00;;;16.07;100.00
51958;BME280;41120;51.820;20.804;2022-09-09T12:46:56;99452.41;;;16.22;100.00
51958;BME280;41120;51.820;20.804;2022-09-09T12:49:35;99453.44;;;16.55;100.00
51958;BME280;41120;51.820;20.804;2022-09-09T12:52:07;99440.97;;;16.65;100.00
51958;BME280;41120;51.820;20.804;2022-09-09T12:54:36;99447.81;;;16.50;100.00
51958;BME280;41120;51.820;20.804;2022-09-09T12:57:05;99444.53;;;16.30;100.00
51958;BME280;41120;51.820;20.804;2022-09-09T12:59:44;99448.25;;;16.98;100.00
51958;BME280;41120;51.820;20.804;2022-09-09T13:02:22;99451.06;;;16.96;100.00
51958;BME280;41120;51.820;20.804;2022-09-09T13:04:49;99432.00;;;16.84;100.00
51958;BME280;41120;51.820;20.804;2022-09-09T13:07:18;99431.47;;;17.15;100.00
51958;BME280;41120;51.820;20.804;2022-09-09T13:09:45;99435.97;;;16.88;100.00
51958;BME280;41120;51.820;20.804;2022-09-09T13:12:31;99438.66;;;16.97;100.00
51958;BME280;41120;51.820;20.804;2022-09-09T13:15:16;99441.69;;;16.76;100.00
51958;BME280;41120;51.820;20.804;2022-09-09T13:17:59;99436.84;;;16.37;100.00
51958;BME280;41120;51.820;20.804;2022-09-09T13:20:28;99430.16;;;16.07;100.00
51958;BME280;41120;51.820;20.804;2022-09-09T13:22:56;99453.13;;;15.88;100.00
51958;BME280;41120;51.820;20.804;2022-09-09T13:25:30;99438.88;;;15.81;100.00
51958;BME280;41120;51.820;20.804;2022-09-09T13:28:05;99437.13;;;16.08;100.00
51958;BME280;41120;51.820;20.804;2022-09-09T13:33:37;99446.41;;;16.38;100.00
51958;BME280;41120;51.820;20.804;2022-09-09T13:36:09;99444.38;;;16.58;100.00
51958;BME280;41120;51.820;20.804;2022-09-09T13:38:55;99451.00;;;16.62;100.00
51958;BME280;41120;51.820;20.804;2022-09-09T13:41:54;99457.13;;;16.62;100.00
51958;BME280;41120;51.820;20.804;2022-09-09T13:44:35;99458.84;;;16.45;100.00
51958;BME280;41120;51.820;20.804;2022-09-09T13:49:58;99449.19;;;15.92;100.00
51958;BME280;41120;51.820;20.804;2022-09-09T13:52:33;99450.09;;;16.01;100.00
51958;BME280;41120;51.820;20.804;2022-09-09T13:55:36;99457.41;;;15.89;100.00
51958;BME280;41120;51.820;20.804;2022-09-09T13:58:15;99453.19;;;15.96;100.00
51958;BME280;41120;51.820;20.804;2022-09-09T14:00:47;99448.06;;;15.77;100.00
51958;BME280;41120;51.820;20.804;2022-09-09T14:03:15;99457.13;;;15.74;100.00
51958;BME280;41120;51.820;20.804;2022-09-09T14:05:45;99457.28;;;15.91;100.00
51958;BME280;41120;51.820;20.804;2022-09-09T14:08:40;99457.06;;;15.84;100.00
51958;BME280;41120;51.820;20.804;2022-09-09T14:11:11;99460.22;;;16.05;100.00
51958;BME280;41120;51.820;20.804;2022-09-09T14:13:45;99460.97;;;15.98;100.00
51958;BME280;41120;51.820;20.804;2022-09-09T14:16:13;99459.81;;;16.18;100.00
51958;BME280;41120;51.820;20.804;2022-09-09T14:19:05;99461.78;;;16.42;100.00
51958;BME280;41120;51.820;20.804;2022-09-09T14:21:36;99462.47;;;16.44;100.00
51958;BME280;41120;51.820;20.804;2022-09-09T14:24:34;99460.88;;;16.52;100.00
51958;BME280;41120;51.820;20.804;2022-09-09T14:27:02;99462.97;;;16.74;100.00
51958;BME280;41120;51.820;20.804;2022-09-09T14:29:35;99455.03;;;16.74;100.00
51958;BME280;41120;51.820;20.804;2022-09-09T14:32:02;99452.19;;;16.67;100.00
51958;BME280;41120;51.820;20.804;2022-09-09T14:34:41;99453.75;;;16.26;100.00
51958;BME280;41120;51.820;20.804;2022-09-09T14:37:30;99466.09;;;16.17;100.00
51958;BME280;41120;51.820;20.804;2022-09-09T14:39:57;99458.22;;;16.25;100.00
51958;BME280;41120;51.820;20.804;2022-09-09T14:42:34;99454.00;;;16.15;100.00
51958;BME280;41120;51.820;20.804;2022-09-09T14:45:08;99468.81;;;16.08;100.00
51958;BME280;41120;51.820;20.804;2022-09-09T14:47:36;99458.94;;;15.92;100.00
51958;BME280;41120;51.820;20.804;2022-09-09T14:50:05;99466.78;;;15.83;100.00
51958;BME280;41120;51.820;20.804;2022-09-09T14:52:47;99459.34;;;15.69;100.00
51958;BME280;41120;51.820;20.804;2022-09-09T14:55:19;99445.41;;;15.59;100.00
51958;BME280;41120;51.820;20.804;2022-09-09T14:57:48;99454.97;;;15.60;100.00
51958;BME280;41120;51.820;20.804;2022-09-09T15:00:27;99448.19;;;15.57;100.00
51958;BME280;41120;51.820;20.804;2022-09-09T15:02:53;99447.13;;;15.50;100.00
51958;BME280;41120;51.820;20.804;2022-09-09T15:05:32;99439.38;;;15.67;100.00
51958;BME280;41120;51.820;20.804;2022-09-09T15:08:00;99449.13;;;15.84;100.00
51958;BME280;41120;51.820;20.804;2022-09-09T15:10:27;99444.53;;;15.86;100.00
51958;BME280;41120;51.820;20.804;2022-09-09T15:12:53;99462.78;;;15.97;100.00
51958;BME280;41120;51.820;20.804;2022-09-09T15:15:20;99458.84;;;15.66;100.00
51958;BME280;41120;51.820;20.804;2022-09-09T15:17:46;99445.03;;;15.54;100.00
51958;BME280;41120;51.820;20.804;2022-09-09T15:20:26;99452.34;;;15.60;100.00
51958;BME280;41120;51.820;20.804;2022-09-09T15:23:05;99445.25;;;15.60;100.00
51958;BME280;41120;51.820;20.804;2022-09-09T15:25:36;99455.81;;;15.60;100.00
51958;BME280;41120;51.820;20.804;2022-09-09T15:28:22;99456.66;;;15.61;100.00
51958;BME280;41120;51.820;20.804;2022-09-09T15:34:02;99456.72;;;15.24;100.00
51958;BME280;41120;51.820;20.804;2022-09-09T15:36:38;99457.03;;;15.20;100.00
51958;BME280;41120;51.820;20.804;2022-09-09T15:39:15;99450.56;;;15.15;100.00
51958;BME280;41120;51.820;20.804;2022-09-09T15:41:55;99450.13;;;15.19;100.00
51958;BME280;41120;51.820;20.804;2022-09-09T15:44:38;99452.56;;;15.03;100.00
51958;BME280;41120;51.820;20.804;2022-09-09T15:47:06;99445.03;;;15.08;100.00
51958;BME280;41120;51.820;20.804;2022-09-09T15:49:41;99436.81;;;15.11;100.00
51958;BME280;41120;51.820;20.804;2022-09-09T15:52:09;99436.72;;;15.03;100.00
51958;BME280;41120;51.820;20.804;2022-09-09T15:54:44;99451.72;;;15.03;100.00
51958;BME280;41120;51.820;20.804;2022-09-09T15:57:36;99451.78;;;14.93;100.00
51958;BME280;41120;51.820;20.804;2022-09-09T16:00:04;99449.56;;;14.88;100.00
51958;BME280;41120;51.820;20.804;2022-09-09T16:02:35;99450.31;;;14.81;100.00
51958;BME280;41120;51.820;20.804;2022-09-09T16:05:08;99449.22;;;14.73;100.00
51958;BME280;41120;51.820;20.804;2022-09-09T16:08:03;99460.28;;;14.77;100.00
51958;BME280;41120;51.820;20.804;2022-09-09T16:10:31;99463.53;;;14.61;100.00
51958;BME280;41120;51.820;20.804;2022-09-09T16:13:03;99457.31;;;14.33;100.00
51958;BME280;41120;51.820;20.804;2022-09-09T16:15:37;99459.00;;;14.53;100.00
51958;BME280;41120;51.820;20.804;2022-09-09T16:18:09;99459.00;;;14.53;100.00
51958;BME280;41120;51.820;20.804;2022-09-09T16:21:01;99472.97;;;14.44;100.00
51958;BME280;41120;51.820;20.804;2022-09-09T16:23:29;99456.78;;;14.39;100.00
51958;BME280;41120;51.820;20.804;2022-09-09T16:26:02;99456.38;;;14.34;100.00
51958;BME280;41120;51.820;20.804;2022-09-09T16:28:42;99457.47;;;14.41;100.00